Time;durP1;ratioP1;P1;durP2;ratioP2;P2;SDS_P1;SDS_P2;PMS_P1;PMS_P2;Temp;Humidity;BMP_temperature;BMP_pressure;BME280_temperature;BME280_humidity;BME280_pressure;Samples;Min_cycle;Max_cycle;Signal;HPM_P1;HPM_P2
2022/04/09 02:15:58;;;;;;;6.28;3.33;;;;;;;-149.40;100.00;119126.13;4300024;80;28494;-77
2022/04/09 02:38:55;;;;;;;12.13;7.77;;;;;;;-149.40;100.00;119126.13;4287985;80;28500;-76
2022/04/09 03:03:07;;;;;;;21.23;10.95;;;;;;;-149.40;100.00;119126.13;4332035;80;28538;-77
2022/04/09 03:45:00;;;;;;;15.30;8.03;;;;;;;-149.40;100.00;119126.13;4344195;80;28507;-77
2022/04/09 03:55:03;;;;;;;21.55;10.18;;;;;;;-149.40;100.00;119126.13;4359989;80;28533;-77
2022/04/09 04:22:42;;;;;;;24.30;11.38;;;;;;;-149.40;100.00;119126.13;4320679;80;28552;-77
2022/04/09 05:10:16;;;;;;;22.95;10.53;;;;;;;-149.40;100.00;119126.13;4340808;80;28540;-77
2022/04/09 10:05:31;;;;;;;23.35;11.12;;;;;;;-149.40;100.00;119126.13;4333726;80;28482;-78
2022/04/09 17:19:50;;;;;;;4.78;3.05;;;;;;;16.72;79.21;99976.94;4273256;80;28475;-85
2022/04/09 17:33:25;;;;;;;8.88;3.77;;;;;;;16.72;79.21;99976.94;4193640;83;28527;-84
2022/04/09 17:40:18;;;;;;;9.18;3.62;;;;;;;16.72;79.21;99976.94;4223548;81;28594;-86
2022/04/09 18:45:31;;;;;;;8.68;4.42;;;;;;;-149.40;100.00;119126.13;4219082;82;28507;-75
2022/04/09 19:09:32;;;;;;;16.23;8.35;;;;;;;16.72;79.21;99976.94;4275770;80;28513;-80
2022/04/09 19:22:41;;;;;;;18.07;8.85;;;;;;;16.72;79.21;99976.94;4297081;80;28500;-86
2022/04/09 19:28:42;;;;;;;16.67;8.83;;;;;;;16.72;79.21;99976.94;4320527;81;28672;-84
2022/04/09 19:34:46;;;;;;;16.52;9.13;;;;;;;13.97;44.11;98342.85;4321966;81;28523;-85
2022/04/09 19:40:47;;;;;;;17.65;9.18;;;;;;;13.85;44.64;98353.92;4274557;80;28479;-84
2022/04/09 19:46:49;;;;;;;21.23;9.45;;;;;;;13.85;44.98;98353.09;4294377;81;28489;-85
2022/04/09 19:52:53;;;;;;;20.17;10.23;;;;;;;13.98;44.96;98366.62;4287624;80;28479;-84
2022/04/09 19:58:54;;;;;;;18.95;10.45;;;;;;;13.50;45.89;98377.91;4298979;80;28573;-85
2022/04/09 20:04:59;;;;;;;21.05;10.65;;;;;;;13.44;46.63;98372.23;4278112;80;28495;-87
2022/04/09 20:29:01;;;;;;;22.80;11.50;;;;;;;13.42;47.09;98374.89;4277285;80;28511;-82
2022/04/09 21:11:20;;;;;;;27.10;13.83;;;;;;;13.42;47.09;98374.89;4307398;80;28512;-82
2022/04/09 21:17:21;;;;;;;26.10;12.35;;;;;;;13.42;47.09;98374.89;4270495;80;28515;-84
2022/04/09 21:23:25;;;;;;;27.40;13.38;;;;;;;12.75;48.80;98414.00;4289987;80;28584;-84
2022/04/09 21:29:27;;;;;;;26.00;13.98;;;;;;;12.15;50.51;98419.53;4318791;80;28483;-84
2022/04/09 21:35:28;;;;;;;26.77;14.15;;;;;;;11.90;51.71;98426.81;4305469;80;28507;-86
2022/04/09 21:41:32;;;;;;;23.77;13.50;;;;;;;11.51;53.29;98434.50;4298434;80;28504;-85
2022/04/09 21:47:35;;;;;;;25.90;13.58;;;;;;;11.69;52.66;98444.11;4294963;80;28623;-83
2022/04/09 21:53:36;;;;;;;24.92;13.25;;;;;;;11.50;53.73;98445.78;4303079;80;28497;-83
2022/04/09 21:59:38;;;;;;;25.55;13.50;;;;;;;11.51;52.85;98452.80;4296136;80;28523;-83
2022/04/09 22:05:40;;;;;;;25.62;13.72;;;;;;;11.46;53.64;98447.89;4300895;80;28442;-83
2022/04/09 22:11:41;;;;;;;25.62;13.40;;;;;;;11.32;53.29;98463.08;4288333;80;28576;-84
2022/04/09 22:17:42;;;;;;;22.02;12.70;;;;;;;11.32;53.45;98459.56;4148829;83;28516;-85
2022/04/09 22:23:44;;;;;;;23.55;12.03;;;;;;;11.20;54.34;98463.19;4152368;83;28505;-86
2022/04/09 22:29:45;;;;;;;25.02;13.03;;;;;;;11.30;53.63;98473.28;4110823;83;28497;-84
2022/04/09 22:35:46;;;;;;;23.85;12.82;;;;;;;11.16;55.01;98480.35;4300155;80;28517;-86
2022/04/09 22:41:47;;;;;;;24.85;12.88;;;;;;;11.40;54.03;98486.05;4326454;80;28453;-85
2022/04/09 22:47:49;;;;;;;26.70;13.53;;;;;;;11.29;54.24;98495.33;4300397;80;28499;-84
2022/04/09 22:53:50;;;;;;;26.60;13.38;;;;;;;11.33;54.01;98497.52;4227060;82;28476;-86
2022/04/09 22:59:52;;;;;;;24.63;12.23;;;;;;;11.55;53.46;98495.64;4168732;83;28515;-86
2022/04/09 23:05:53;;;;;;;26.65;12.68;;;;;;;11.55;53.29;98497.53;4322948;82;28609;-81
2022/04/09 23:11:55;;;;;;;26.60;13.80;;;;;;;11.73;52.89;98506.36;4330581;80;28494;-82
2022/04/09 23:17:56;;;;;;;24.67;12.35;;;;;;;11.64;53.07;98508.14;4295418;80;28445;-81
2022/04/09 23:23:58;;;;;;;25.27;13.25;;;;;;;11.61;53.34;98507.83;4292549;80;28527;-81
2022/04/09 23:29:59;;;;;;;27.07;13.03;;;;;;;11.61;53.04;98507.31;4282461;80;28513;-80
2022/04/09 23:36:00;;;;;;;22.45;12.43;;;;;;;11.41;54.36;98519.97;4276519;80;28522;-78
2022/04/09 23:42:01;;;;;;;23.98;11.55;;;;;;;11.42;54.18;98523.77;4310109;80;28472;-78
2022/04/09 23:48:03;;;;;;;25.30;12.13;;;;;;;11.55;53.82;98526.59;4274022;80;28598;-79
2022/04/09 23:54:05;;;;;;;21.97;11.43;;;;;;;11.32;54.17;98534.39;4284322;80;28482;-81
